Time;durP1;ratioP1;P1;durP2;ratioP2;P2;SDS_P1;SDS_P2;PMS_P1;PMS_P2;Temp;Humidity;BMP_temperature;BMP_pressure;BME280_temperature;BME280_humidity;BME280_pressure;Samples;Min_cycle;Max_cycle;Signal;HPM_P1;HPM_P2
2023/08/03 00:01:42;;;;;;;10.65;7.80;;;;;;;24.81;70.33;94206.88;5074593;28;20197;-43
2023/08/03 00:04:09;;;;;;;8.88;7.45;;;;;;;24.67;70.24;94198.56;5091873;28;20241;-45
2023/08/03 00:06:37;;;;;;;7.25;6.55;;;;;;;24.71;70.51;94216.16;5091588;28;20275;-43
2023/08/03 00:09:04;;;;;;;6.85;6.22;;;;;;;24.75;70.18;94221.72;5091514;28;20192;-43
2023/08/03 00:11:30;;;;;;;10.02;7.25;;;;;;;24.67;70.83;94211.66;5091348;28;20197;-43
2023/08/03 00:13:57;;;;;;;7.38;6.68;;;;;;;24.55;71.21;94198.63;5091880;28;20626;-43
2023/08/03 00:16:24;;;;;;;7.50;6.82;;;;;;;24.56;71.54;94217.72;5091287;28;20581;-43
2023/08/03 00:18:51;;;;;;;7.70;6.65;;;;;;;24.50;71.98;94212.41;5091212;28;20299;-45
2023/08/03 00:21:18;;;;;;;7.80;7.00;;;;;;;24.48;71.89;94209.25;5091523;28;20181;-44
2023/08/03 00:23:46;;;;;;;8.10;7.07;;;;;;;24.43;72.12;94214.38;5090549;28;20588;-44
2023/08/03 00:26:12;;;;;;;11.32;7.25;;;;;;;24.37;72.48;94206.66;5092335;28;20235;-44
2023/08/03 00:28:39;;;;;;;9.30;6.43;;;;;;;24.35;72.75;94211.31;5091234;28;20202;-43
2023/08/03 00:31:06;;;;;;;7.55;6.80;;;;;;;24.35;72.66;94206.88;5090988;28;20230;-43
2023/08/03 00:33:33;;;;;;;7.43;6.72;;;;;;;24.28;72.55;94195.78;5091341;28;20198;-43
2023/08/03 00:35:59;;;;;;;7.95;7.22;;;;;;;24.35;72.36;94208.69;5091441;28;20185;-44
2023/08/03 00:38:26;;;;;;;7.80;7.00;;;;;;;24.31;72.69;94203.19;5090920;28;20569;-43
2023/08/03 00:40:55;;;;;;;11.18;7.65;;;;;;;24.27;72.53;94202.84;5091166;28;20661;-44
2023/08/03 00:43:21;;;;;;;7.80;7.03;;;;;;;24.23;72.63;94204.34;5090599;28;20221;-44
2023/08/03 00:45:48;;;;;;;7.90;7.05;;;;;;;24.18;73.04;94204.25;5090919;28;20637;-44
2023/08/03 00:48:15;;;;;;;7.80;7.00;;;;;;;24.16;73.21;94202.88;5090953;28;20181;-43
2023/08/03 00:50:42;;;;;;;7.75;6.97;;;;;;;24.18;72.92;94200.81;5090736;28;20208;-43
2023/08/03 00:53:08;;;;;;;8.23;7.43;;;;;;;24.15;73.44;94203.91;5090580;28;20193;-44
2023/08/03 00:55:35;;;;;;;8.65;7.00;;;;;;;24.15;73.27;94196.88;5090863;28;20658;-43
2023/08/03 00:58:05;;;;;;;8.82;7.32;;;;;;;24.15;73.26;94201.31;5090695;28;20613;-43
2023/08/03 01:00:32;;;;;;;7.63;6.88;;;;;;;24.13;73.52;94200.72;5089494;28;20562;-43
2023/08/03 01:02:59;;;;;;;7.88;6.47;;;;;;;24.02;73.77;94189.31;5090586;28;20221;-43
2023/08/03 01:05:26;;;;;;;7.72;6.57;;;;;;;24.03;73.96;94193.50;5090430;28;20186;-42
2023/08/03 01:07:53;;;;;;;9.90;7.43;;;;;;;23.99;74.35;94193.19;5090636;28;20225;-43
2023/08/03 01:10:21;;;;;;;8.88;7.40;;;;;;;23.95;74.56;94194.66;5090552;28;20904;-45
2023/08/03 01:12:47;;;;;;;8.38;6.95;;;;;;;23.94;74.48;94195.69;5090385;28;20189;-44
2023/08/03 01:15:16;;;;;;;8.20;7.40;;;;;;;23.89;74.90;94200.84;5090226;28;20197;-43
2023/08/03 01:17:42;;;;;;;9.75;7.95;;;;;;;23.84;74.89;94190.28;5090262;28;20630;-44
2023/08/03 01:20:10;;;;;;;7.47;6.80;;;;;;;23.84;74.91;94194.72;5090627;28;20182;-45
2023/08/03 01:22:41;;;;;;;8.48;7.55;;;;;;;23.78;75.09;94206.88;5090376;28;20612;-46
2023/08/03 01:25:09;;;;;;;8.13;7.43;;;;;;;23.74;75.15;94200.53;5090061;28;20232;-44
2023/08/03 01:27:36;;;;;;;8.13;7.43;;;;;;;23.69;75.28;94192.59;5090254;28;20674;-43
2023/08/03 01:30:03;;;;;;;394.67;288.55;;;;;;;23.67;75.23;94203.28;5089722;28;20248;-44
2023/08/03 01:32:30;;;;;;;87.20;68.50;;;;;;;23.64;75.32;94198.47;5090102;28;20204;-44
2023/08/03 01:34:57;;;;;;;17.17;15.02;;;;;;;23.64;75.38;94201.09;5089669;28;20545;-43
2023/08/03 01:37:26;;;;;;;8.75;7.95;;;;;;;23.62;75.82;94202.31;5089995;28;20221;-43
2023/08/03 01:39:54;;;;;;;7.97;7.28;;;;;;;23.59;75.83;94203.59;5089760;28;20190;-44
2023/08/03 01:42:21;;;;;;;11.15;8.23;;;;;;;23.56;76.06;94204.06;5090076;28;20657;-42
2023/08/03 01:44:48;;;;;;;8.80;7.45;;;;;;;23.53;76.03;94197.50;5089704;28;20197;-43
2023/08/03 01:47:15;;;;;;;10.43;7.18;;;;;;;23.52;76.43;94201.09;5090139;28;20198;-42
2023/08/03 01:49:42;;;;;;;8.13;7.32;;;;;;;23.51;76.37;94206.56;5090074;28;20190;-43
2023/08/03 01:52:08;;;;;;;10.02;8.00;;;;;;;23.48;76.54;94207.81;5089914;28;20610;-43
2023/08/03 01:54:35;;;;;;;9.00;7.35;;;;;;;23.46;77.02;94209.06;5089707;28;20625;-43
2023/08/03 01:57:03;;;;;;;10.07;7.72;;;;;;;23.45;77.16;94216.13;5089823;28;20640;-45
2023/08/03 01:59:30;;;;;;;8.10;7.30;;;;;;;23.44;77.13;94218.94;5089604;28;20186;-43
2023/08/03 02:01:57;;;;;;;9.57;8.38;;;;;;;23.42;77.21;94208.72;5089457;28;20284;-45
2023/08/03 02:04:24;;;;;;;9.13;7.45;;;;;;;23.35;77.43;94204.66;5089717;28;20217;-43
2023/08/03 02:06:52;;;;;;;11.10;8.07;;;;;;;23.33;77.60;94210.09;5089475;28;20201;-44
2023/08/03 02:09:19;;;;;;;8.88;7.70;;;;;;;23.28;77.51;94200.34;5089716;28;20231;-43
2023/08/03 02:11:46;;;;;;;8.05;7.25;;;;;;;23.30;77.74;94200.13;5089445;28;20208;-44
2023/08/03 02:14:15;;;;;;;9.40;8.20;;;;;;;23.32;77.95;94205.13;5089561;28;20685;-44
2023/08/03 02:16:42;;;;;;;12.02;7.47;;;;;;;23.27;77.97;94204.00;5090062;28;20280;-44
2023/08/03 02:19:08;;;;;;;10.75;7.70;;;;;;;23.28;78.04;94205.56;5089938;28;20198;-44
2023/08/03 02:21:36;;;;;;;15.02;7.15;;;;;;;23.27;78.51;94197.94;5089525;28;20189;-49
2023/08/03 02:24:02;;;;;;;8.40;7.60;;;;;;;23.09;78.37;94177.22;5089477;28;20238;-43
2023/08/03 02:26:29;;;;;;;8.40;7.57;;;;;;;23.11;78.61;94186.41;5089519;28;20182;-45
2023/08/03 02:28:56;;;;;;;9.43;7.53;;;;;;;23.17;78.56;94205.56;5089557;28;20190;-42
2023/08/03 02:31:24;;;;;;;9.05;7.80;;;;;;;23.15;78.80;94213.63;5089306;28;20221;-45
2023/08/03 02:33:51;;;;;;;7.90;7.15;;;;;;;23.17;78.79;94218.63;5089475;28;20274;-44
2023/08/03 02:36:17;;;;;;;9.30;8.30;;;;;;;23.16;78.91;94217.81;5089419;28;20564;-45
2023/08/03 02:38:44;;;;;;;10.13;7.57;;;;;;;23.11;79.04;94228.16;5089097;28;20197;-43
2023/08/03 02:41:11;;;;;;;11.15;7.95;;;;;;;23.08;79.09;94214.75;5089391;28;20580;-45
2023/08/03 02:43:38;;;;;;;9.20;7.28;;;;;;;23.00;79.04;94213.28;5089263;28;20229;-43
2023/08/03 02:46:05;;;;;;;12.13;8.18;;;;;;;22.98;79.31;94216.13;5091018;28;20196;-43
2023/08/03 02:48:33;;;;;;;9.93;7.63;;;;;;;22.95;79.37;94216.56;5093366;28;20190;-45
2023/08/03 02:50:59;;;;;;;8.90;7.78;;;;;;;22.74;79.27;94189.19;5093266;28;20568;-44
2023/08/03 02:53:26;;;;;;;10.68;8.07;;;;;;;22.92;79.89;94213.59;5093037;28;20649;-43
2023/08/03 02:55:53;;;;;;;10.20;7.88;;;;;;;22.85;79.73;94207.69;5093293;28;20189;-44
2023/08/03 02:58:20;;;;;;;8.95;7.38;;;;;;;22.83;79.97;94220.16;5092652;28;20646;-45
2023/08/03 03:00:46;;;;;;;8.50;7.68;;;;;;;22.77;80.02;94208.81;5092910;28;20646;-44
2023/08/03 03:03:13;;;;;;;9.20;7.97;;;;;;;22.76;79.97;94215.06;5093113;28;20225;-43
2023/08/03 03:05:41;;;;;;;8.65;7.85;;;;;;;22.78;80.08;94223.44;5092808;28;20197;-44
2023/08/03 03:08:08;;;;;;;9.27;8.32;;;;;;;22.62;80.09;94203.22;5093196;28;20205;-45
2023/08/03 03:10:35;;;;;;;9.68;8.63;;;;;;;22.67;80.36;94222.41;5092712;28;20197;-44
2023/08/03 03:13:02;;;;;;;10.95;7.63;;;;;;;22.70;80.22;94227.16;5092765;28;20538;-44
2023/08/03 03:15:28;;;;;;;10.02;8.48;;;;;;;22.68;80.36;94239.63;5092673;28;20623;-42
2023/08/03 03:17:55;;;;;;;8.63;7.63;;;;;;;22.66;80.75;94235.63;5092868;28;20686;-42
2023/08/03 03:20:22;;;;;;;11.20;8.25;;;;;;;22.64;80.88;94238.47;5092667;28;20719;-44
2023/08/03 03:22:50;;;;;;;9.45;8.45;;;;;;;22.69;80.79;94235.19;5092686;28;20192;-42
2023/08/03 03:25:17;;;;;;;8.93;8.13;;;;;;;22.69;80.72;94235.19;5092521;28;20221;-42
2023/08/03 03:27:43;;;;;;;10.55;8.80;;;;;;;22.66;80.36;94239.03;5092344;28;20194;-43
2023/08/03 03:30:11;;;;;;;9.93;8.35;;;;;;;22.63;80.67;94246.53;5092087;28;20227;-42
2023/08/03 03:32:38;;;;;;;8.48;7.68;;;;;;;22.61;80.88;94244.13;5092721;28;20182;-44
2023/08/03 03:35:05;;;;;;;8.45;7.65;;;;;;;22.64;80.58;94240.28;5092465;28;20590;-44
2023/08/03 03:37:31;;;;;;;9.13;8.00;;;;;;;22.64;80.75;94245.50;5092066;28;20258;-45
2023/08/03 03:40:00;;;;;;;12.43;8.73;;;;;;;22.67;80.60;94240.66;5092326;28;20645;-44
2023/08/03 03:42:26;;;;;;;10.93;8.23;;;;;;;22.69;80.71;94243.03;5091960;28;20188;-43
2023/08/03 03:44:53;;;;;;;11.18;9.05;;;;;;;22.71;80.66;94238.38;5092340;28;20221;-43
2023/08/03 03:47:20;;;;;;;10.35;8.63;;;;;;;22.73;80.64;94241.56;5092150;28;20189;-43
2023/08/03 03:49:47;;;;;;;10.68;8.52;;;;;;;22.73;80.92;94242.34;5092286;28;20201;-43
2023/08/03 03:52:13;;;;;;;11.40;8.88;;;;;;;22.77;80.70;94240.09;5091896;28;20194;-43
2023/08/03 03:54:40;;;;;;;11.73;8.82;;;;;;;22.87;80.51;94247.38;5092093;28;20194;-43
2023/08/03 03:57:08;;;;;;;11.57;8.82;;;;;;;22.91;80.27;94251.94;5090495;28;20243;-43
2023/08/03 03:59:35;;;;;;;13.20;8.65;;;;;;;22.91;80.49;94243.31;5091876;28;20563;-42
2023/08/03 04:02:02;;;;;;;13.40;9.07;;;;;;;22.88;80.32;94233.28;5091972;28;20197;-45
2023/08/03 04:04:29;;;;;;;13.68;10.13;;;;;;;23.06;80.59;94254.13;5091949;28;20217;-43
2023/08/03 04:06:55;;;;;;;11.27;9.25;;;;;;;23.08;80.54;94253.88;5092366;28;20197;-45
2023/08/03 04:09:22;;;;;;;9.85;8.90;;;;;;;23.14;80.30;94248.53;5093534;28;20193;-44
2023/08/03 04:11:49;;;;;;;10.73;9.27;;;;;;;23.21;80.25;94254.47;5091853;28;20633;-43
2023/08/03 04:14:17;;;;;;;10.80;9.75;;;;;;;23.18;80.62;94252.28;5091497;28;20681;-43
2023/08/03 04:16:44;;;;;;;12.25;9.77;;;;;;;23.26;80.67;94253.78;5091778;28;20198;-44
2023/08/03 04:19:11;;;;;;;13.50;9.45;;;;;;;23.34;80.13;94255.25;5091540;28;20638;-44
2023/08/03 04:21:37;;;;;;;12.38;10.55;;;;;;;23.39;80.12;94261.38;5091519;28;20667;-42
2023/08/03 04:24:05;;;;;;;10.93;9.48;;;;;;;23.46;79.55;94256.06;5091184;28;20218;-43
2023/08/03 04:26:31;;;;;;;12.07;9.60;;;;;;;23.53;79.33;94257.53;5091612;28;20188;-41
2023/08/03 04:28:58;;;;;;;11.75;9.80;;;;;;;23.60;79.05;94265.22;5091695;28;20197;-43
2023/08/03 04:31:27;;;;;;;11.00;9.55;;;;;;;23.63;78.73;94269.22;5091373;28;20240;-43
2023/08/03 04:33:54;;;;;;;11.52;9.70;;;;;;;23.72;78.41;94262.63;5091363;28;20251;-42
2023/08/03 04:36:20;;;;;;;11.45;9.55;;;;;;;23.71;78.19;94268.88;5091293;28;20198;-43
2023/08/03 04:38:47;;;;;;;17.83;10.35;;;;;;;23.76;78.49;94261.94;5090749;28;20200;-44
2023/08/03 04:41:16;;;;;;;14.48;10.48;;;;;;;23.78;78.25;94270.31;5091381;28;20186;-43
2023/08/03 04:43:43;;;;;;;13.55;11.40;;;;;;;23.80;78.04;94270.13;5090959;28;20230;-44
2023/08/03 04:46:10;;;;;;;18.48;11.48;;;;;;;23.80;77.78;94274.56;5091267;28;20194;-43
2023/08/03 04:48:39;;;;;;;13.88;10.68;;;;;;;23.85;77.78;94275.44;5091250;28;20182;-44
2023/08/03 04:51:05;;;;;;;11.93;10.70;;;;;;;23.93;77.52;94282.94;5090656;28;20189;-43
2023/08/03 04:53:32;;;;;;;16.67;11.00;;;;;;;24.03;77.38;94274.50;5091009;28;20239;-43
2023/08/03 04:55:59;;;;;;;15.38;11.85;;;;;;;24.12;77.29;94285.38;5090628;28;20178;-43
2023/08/03 04:58:25;;;;;;;14.57;11.00;;;;;;;24.22;77.22;94285.56;5090970;28;20192;-44
2023/08/03 05:00:52;;;;;;;18.10;11.27;;;;;;;24.35;76.79;94289.72;5090645;28;20200;-43
2023/08/03 05:03:19;;;;;;;17.95;10.57;;;;;;;24.52;76.02;94290.59;5090960;28;20215;-44
2023/08/03 05:05:47;;;;;;;15.48;10.80;;;;;;;24.85;75.14;94297.72;5090362;28;20659;-44
2023/08/03 05:08:14;;;;;;;13.57;10.60;;;;;;;25.18;73.98;94289.16;5090348;28;20208;-45
2023/08/03 05:10:41;;;;;;;13.60;11.18;;;;;;;25.51;72.83;94293.56;5090143;28;20186;-44
2023/08/03 05:13:07;;;;;;;11.98;9.43;;;;;;;25.88;71.22;94289.63;5090459;28;20190;-44
2023/08/03 05:15:34;;;;;;;12.40;10.32;;;;;;;26.22;68.92;94295.56;5088870;28;20208;-44
2023/08/03 05:18:01;;;;;;;12.38;10.13;;;;;;;26.57;67.83;94289.16;5090485;28;20684;-43
2023/08/03 05:20:28;;;;;;;17.00;11.13;;;;;;;26.79;66.91;94284.63;5090355;28;20247;-45
2023/08/03 05:22:56;;;;;;;14.32;10.43;;;;;;;27.13;65.66;94298.34;5090268;28;20186;-45
2023/08/03 05:25:23;;;;;;;11.77;10.57;;;;;;;27.46;64.38;94297.31;5090088;28;20213;-45
2023/08/03 05:27:50;;;;;;;17.13;10.32;;;;;;;27.77;62.90;94302.78;5089973;28;20224;-45
2023/08/03 05:30:17;;;;;;;10.88;9.43;;;;;;;28.00;63.17;94301.56;5089648;28;20225;-43
2023/08/03 05:32:44;;;;;;;12.88;10.77;;;;;;;28.38;61.47;94300.44;5089800;28;20190;-45
2023/08/03 05:35:12;;;;;;;14.98;10.70;;;;;;;28.50;60.13;94293.13;5089414;28;20186;-44
2023/08/03 05:37:39;;;;;;;13.50;10.00;;;;;;;28.70;59.43;94302.09;5089321;28;20197;-43
2023/08/03 05:40:08;;;;;;;15.65;10.18;;;;;;;28.89;58.58;94305.84;5069648;28;20219;-44
2023/08/03 05:42:38;;;;;;;16.27;11.10;;;;;;;28.96;58.94;94303.75;5083029;28;20196;-45
2023/08/03 05:45:12;;;;;;;13.93;10.38;;;;;;;29.13;58.30;94305.34;5090234;28;20660;-45
2023/08/03 05:47:39;;;;;;;13.02;9.95;;;;;;;29.33;57.25;94308.00;5090704;28;20226;-45
2023/08/03 05:50:13;;;;;;;17.27;10.40;;;;;;;29.58;56.64;94306.41;5090114;28;20638;-44
2023/08/03 05:52:39;;;;;;;12.45;10.52;;;;;;;29.66;56.34;94311.94;5089633;28;20498;-44
2023/08/03 05:55:11;;;;;;;12.52;11.18;;;;;;;29.57;56.53;94307.47;5089649;28;20638;-44
2023/08/03 05:57:39;;;;;;;17.52;10.95;;;;;;;29.82;56.14;94314.53;5089592;28;20182;-44
2023/08/03 06:00:13;;;;;;;13.13;10.52;;;;;;;30.14;54.63;94317.66;5090387;28;20212;-49
2023/08/03 06:02:40;;;;;;;14.70;12.90;;;;;;;30.27;54.03;94320.75;5089675;28;20182;-46
2023/08/03 06:05:28;;;;;;;14.20;12.68;;;;;;;30.19;54.06;94330.03;5089861;28;20205;-46
2023/08/03 06:07:55;;;;;;;12.75;11.35;;;;;;;30.60;53.30;94321.94;5089551;28;20568;-45
2023/08/03 06:10:23;;;;;;;18.33;10.93;;;;;;;31.03;52.20;94316.97;5089642;28;20213;-45
2023/08/03 06:12:50;;;;;;;16.52;11.82;;;;;;;31.33;50.88;94319.41;5089620;28;20193;-44
2023/08/03 06:15:17;;;;;;;15.45;10.85;;;;;;;31.19;51.14;94306.00;5089528;28;20198;-43
2023/08/03 06:17:44;;;;;;;13.85;10.93;;;;;;;31.33;50.91;94315.97;5089315;28;20197;-44
2023/08/03 06:20:14;;;;;;;12.60;11.40;;;;;;;31.37;51.29;94324.94;5089832;28;20522;-43
2023/08/03 06:22:41;;;;;;;19.67;11.90;;;;;;;31.42;50.95;94319.59;5093701;28;20247;-45
2023/08/03 06:25:09;;;;;;;17.35;12.50;;;;;;;31.55;50.40;94324.25;5094004;28;20258;-44
2023/08/03 06:27:40;;;;;;;16.67;11.57;;;;;;;31.52;50.83;94319.53;5093426;28;20224;-44
2023/08/03 06:30:13;;;;;;;21.95;11.05;;;;;;;31.70;50.44;94321.47;5093409;28;20345;-43
2023/08/03 06:32:40;;;;;;;18.80;10.90;;;;;;;31.80;50.35;94327.72;5093577;28;20262;-42
2023/08/03 06:35:24;;;;;;;10.15;8.90;;;;;;;32.02;49.81;94330.69;5093486;28;20695;-43
2023/08/03 06:37:51;;;;;;;10.30;9.40;;;;;;;32.37;48.28;94336.66;5093079;28;20560;-43
2023/08/03 06:40:17;;;;;;;11.43;10.07;;;;;;;32.58;47.19;94331.94;5093747;28;20189;-45
2023/08/03 06:42:46;;;;;;;11.15;9.07;;;;;;;32.88;46.48;94333.41;5093224;28;20190;-44
2023/08/03 06:45:13;;;;;;;11.27;8.82;;;;;;;33.07;46.17;94330.75;5093093;28;20217;-43
2023/08/03 06:47:40;;;;;;;9.60;8.35;;;;;;;33.37;45.61;94330.28;5093075;28;20653;-45
2023/08/03 06:50:08;;;;;;;13.20;9.38;;;;;;;33.65;45.29;94336.50;5093163;28;20190;-44
2023/08/03 06:52:35;;;;;;;12.23;9.20;;;;;;;33.70;45.70;94336.41;5093126;28;20295;-43
2023/08/03 06:55:02;;;;;;;11.07;9.73;;;;;;;33.79;44.88;94328.56;5093300;28;20208;-42
2023/08/03 06:57:28;;;;;;;12.15;9.70;;;;;;;33.81;45.11;94333.56;5093395;28;20204;-44
2023/08/03 06:59:58;;;;;;;10.60;9.00;;;;;;;33.87;45.00;94327.91;5092909;28;20212;-43
2023/08/03 07:02:26;;;;;;;10.23;8.85;;;;;;;34.09;44.18;94329.13;5093045;28;20239;-44
2023/08/03 07:04:52;;;;;;;11.18;10.02;;;;;;;34.33;43.31;94336.91;5092706;28;20217;-43
2023/08/03 07:07:19;;;;;;;11.55;9.02;;;;;;;34.36;43.23;94329.13;5092898;28;20623;-46
2023/08/03 07:09:48;;;;;;;9.73;8.25;;;;;;;34.23;43.22;94327.25;5092924;28;20503;-43
2023/08/03 07:12:15;;;;;;;9.48;8.48;;;;;;;34.42;43.25;94327.94;5092738;28;20296;-44
2023/08/03 07:14:42;;;;;;;9.55;8.65;;;;;;;34.67;42.92;94331.16;5092482;28;20956;-46
2023/08/03 07:17:10;;;;;;;9.57;8.70;;;;;;;34.80;42.30;94333.00;5093083;28;20185;-43
2023/08/03 07:19:37;;;;;;;9.32;7.90;;;;;;;34.99;41.77;94329.47;5092513;28;20197;-43
2023/08/03 07:22:04;;;;;;;9.80;8.80;;;;;;;34.99;41.74;94327.59;5092586;28;20186;-45
2023/08/03 07:24:33;;;;;;;9.70;8.65;;;;;;;35.14;41.96;94331.75;5092188;28;20721;-44
2023/08/03 07:27:01;;;;;;;15.23;9.43;;;;;;;35.09;41.76;94323.91;5092480;28;20193;-44
2023/08/03 07:29:28;;;;;;;12.25;8.55;;;;;;;35.06;41.51;94324.50;5092168;28;20220;-44
2023/08/03 07:31:55;;;;;;;9.55;8.55;;;;;;;34.94;41.59;94306.41;5092199;28;20190;-44
2023/08/03 07:34:23;;;;;;;9.85;8.85;;;;;;;35.07;41.82;94316.25;5092541;28;20193;-44
2023/08/03 07:36:52;;;;;;;16.65;9.52;;;;;;;35.03;41.97;94323.25;5092218;28;20200;-44
2023/08/03 07:39:19;;;;;;;11.27;7.70;;;;;;;35.17;41.46;94318.66;5092272;28;20194;-46
2023/08/03 07:41:45;;;;;;;13.77;8.63;;;;;;;35.34;41.17;94317.22;5091829;28;20744;-45
2023/08/03 07:44:12;;;;;;;10.23;8.23;;;;;;;35.27;40.92;94314.97;5092037;28;20711;-44
2023/08/03 07:46:39;;;;;;;10.70;8.68;;;;;;;34.94;41.18;94325.03;5092288;28;20631;-44
2023/08/03 07:49:06;;;;;;;13.55;8.68;;;;;;;34.76;41.39;94318.78;5092125;28;20196;-44
2023/08/03 07:51:34;;;;;;;10.05;9.15;;;;;;;34.82;41.83;94320.22;5092844;28;20190;-46
2023/08/03 07:54:01;;;;;;;9.23;8.35;;;;;;;35.04;41.63;94324.03;5092390;28;20549;-45
2023/08/03 07:56:27;;;;;;;11.60;8.35;;;;;;;35.18;41.63;94316.78;5091875;28;20190;-45
2023/08/03 07:58:54;;;;;;;8.73;7.82;;;;;;;35.34;40.73;94314.56;5092104;28;20849;-44
2023/08/03 08:01:21;;;;;;;9.95;8.38;;;;;;;35.33;40.39;94292.50;5091858;28;20194;-46
2023/08/03 08:03:48;;;;;;;8.95;8.13;;;;;;;35.42;40.39;94305.84;5092212;28;20194;-44
2023/08/03 08:06:18;;;;;;;9.40;8.43;;;;;;;35.60;39.65;94309.44;5091634;28;20256;-43
2023/08/03 08:08:47;;;;;;;11.02;8.50;;;;;;;35.38;39.39;94316.31;5091866;28;20213;-44
2023/08/03 08:11:15;;;;;;;8.88;8.05;;;;;;;35.01;40.17;94309.47;5091708;28;20626;-44
2023/08/03 08:13:42;;;;;;;8.75;8.00;;;;;;;34.93;41.13;94318.94;5091945;28;20197;-45
2023/08/03 08:16:11;;;;;;;9.95;8.95;;;;;;;35.04;41.27;94308.88;5092297;28;20189;-43
2023/08/03 08:18:39;;;;;;;9.27;8.40;;;;;;;35.15;40.99;94314.75;5091979;28;20214;-44
2023/08/03 08:21:07;;;;;;;10.45;8.43;;;;;;;35.06;40.77;94311.22;5091724;28;20190;-45
2023/08/03 08:23:34;;;;;;;9.15;8.20;;;;;;;35.04;41.00;94308.09;5091193;28;20193;-46
2023/08/03 08:26:09;;;;;;;10.30;8.48;;;;;;;35.18;40.77;94304.28;5091326;28;20210;-45
2023/08/03 08:28:35;;;;;;;9.77;8.75;;;;;;;35.35;40.29;94295.63;5091303;28;20242;-43
2023/08/03 08:31:02;;;;;;;11.85;8.80;;;;;;;35.44;40.13;94295.69;5091275;28;20257;-45
2023/08/03 08:33:29;;;;;;;11.43;9.02;;;;;;;35.34;40.72;94294.06;5091224;28;20272;-44
2023/08/03 08:35:56;;;;;;;11.07;9.15;;;;;;;35.35;40.57;94292.19;5091251;28;20193;-43
2023/08/03 08:38:22;;;;;;;12.00;8.93;;;;;;;35.32;40.08;94285.63;5091337;28;20178;-46
2023/08/03 08:40:49;;;;;;;9.18;8.25;;;;;;;35.47;39.84;94289.78;5091129;28;20272;-43
2023/08/03 08:43:19;;;;;;;12.02;8.55;;;;;;;35.61;39.43;94282.50;5090064;28;20652;-46
2023/08/03 08:45:45;;;;;;;14.13;8.88;;;;;;;35.70;39.44;94295.84;5091189;28;20307;-44
2023/08/03 08:48:13;;;;;;;15.57;9.23;;;;;;;35.61;39.60;94287.81;5091251;28;20193;-49
2023/08/03 08:50:40;;;;;;;9.75;8.85;;;;;;;35.60;39.80;94282.81;5091200;28;20190;-44
2023/08/03 08:53:07;;;;;;;11.90;9.00;;;;;;;35.55;39.97;94280.28;5090573;28;20197;-44
2023/08/03 08:55:34;;;;;;;9.73;8.00;;;;;;;35.57;39.30;94284.19;5091282;28;20190;-44
2023/08/03 08:58:02;;;;;;;13.80;8.38;;;;;;;35.57;39.24;94280.75;5090935;28;20235;-43
2023/08/03 09:00:30;;;;;;;10.88;8.90;;;;;;;35.44;39.57;94275.19;5090464;28;20672;-45
2023/08/03 09:02:57;;;;;;;9.90;8.25;;;;;;;35.57;39.57;94272.78;5090616;28;20240;-44
2023/08/03 09:05:25;;;;;;;12.18;8.75;;;;;;;35.65;40.11;94280.03;5090611;28;20209;-45
2023/08/03 09:08:03;;;;;;;15.25;8.98;;;;;;;35.71;39.73;94276.16;5090525;28;20353;-45
2023/08/03 09:10:30;;;;;;;11.60;9.20;;;;;;;35.67;39.37;94253.91;5090623;28;20178;-44
2023/08/03 09:12:58;;;;;;;10.10;8.85;;;;;;;35.79;39.22;94264.75;5090558;28;20251;-44
2023/08/03 09:15:41;;;;;;;18.08;8.68;;;;;;;35.78;39.04;94270.38;5090250;28;20314;-44
2023/08/03 09:18:08;;;;;;;8.90;8.02;;;;;;;35.68;39.26;94268.78;5090567;28;20277;-46
2023/08/03 09:20:35;;;;;;;9.45;8.45;;;;;;;35.63;39.40;94255.63;5090180;28;20198;-43
2023/08/03 09:23:02;;;;;;;10.63;8.65;;;;;;;35.73;39.31;94265.19;5090448;28;20250;-44
2023/08/03 09:25:29;;;;;;;13.48;9.27;;;;;;;35.82;39.23;94266.00;5089958;28;20213;-43
2023/08/03 09:27:57;;;;;;;11.02;8.07;;;;;;;35.79;39.19;94261.28;5090498;28;20182;-44
2023/08/03 09:30:25;;;;;;;10.90;8.13;;;;;;;35.84;39.42;94261.16;5089748;28;20225;-44
2023/08/03 09:32:54;;;;;;;9.45;8.25;;;;;;;35.84;39.50;94247.84;5090414;28;20689;-43
2023/08/03 09:35:22;;;;;;;9.27;8.48;;;;;;;35.89;39.29;94253.84;5089737;28;20228;-46
2023/08/03 09:37:50;;;;;;;11.07;9.05;;;;;;;35.81;39.52;94257.25;5090101;28;20665;-44
2023/08/03 09:40:17;;;;;;;11.88;8.75;;;;;;;35.80;39.20;94252.25;5091044;28;20182;-45
2023/08/03 09:42:45;;;;;;;12.38;8.35;;;;;;;35.76;39.22;94241.41;5090160;28;20227;-45
2023/08/03 09:45:12;;;;;;;10.45;8.63;;;;;;;35.83;39.14;94254.28;5089678;28;20194;-45
2023/08/03 09:47:39;;;;;;;10.25;7.60;;;;;;;35.79;39.13;94240.00;5090038;28;20186;-42
2023/08/03 09:50:09;;;;;;;10.05;9.15;;;;;;;35.71;39.49;94228.25;5089672;28;20193;-45
2023/08/03 09:52:43;;;;;;;11.20;9.40;;;;;;;35.61;39.59;94223.97;5089901;28;20568;-45
2023/08/03 09:55:18;;;;;;;9.68;8.68;;;;;;;35.75;39.71;94239.84;5090325;28;20197;-45
2023/08/03 09:57:50;;;;;;;11.00;9.90;;;;;;;35.79;39.70;94238.13;5090697;28;20197;-45
2023/08/03 10:00:18;;;;;;;10.15;9.15;;;;;;;35.90;39.53;94236.75;5089805;28;20683;-47
2023/08/03 10:02:49;;;;;;;16.77;9.10;;;;;;;35.81;39.17;94235.97;5089719;28;20197;-45
2023/08/03 10:05:20;;;;;;;11.60;10.50;;;;;;;35.68;39.45;94234.97;5089253;28;20285;-44
2023/08/03 10:07:53;;;;;;;11.20;8.82;;;;;;;35.44;40.06;94227.31;5090162;28;20185;-45
2023/08/03 10:10:23;;;;;;;12.65;9.60;;;;;;;35.47;39.83;94223.28;5089607;28;20277;-45
2023/08/03 10:12:56;;;;;;;11.13;9.35;;;;;;;35.49;40.20;94228.28;5089616;28;20255;-44
2023/08/03 10:15:25;;;;;;;11.18;9.93;;;;;;;35.45;40.00;94220.13;5089469;28;20263;-46
2023/08/03 10:17:53;;;;;;;11.75;8.88;;;;;;;35.23;40.63;94212.97;5090161;28;20190;-45
2023/08/03 10:20:23;;;;;;;10.13;9.07;;;;;;;35.20;41.00;94216.25;5089429;28;20186;-46
2023/08/03 10:23:08;;;;;;;10.98;9.70;;;;;;;35.19;40.78;94212.81;5089856;28;20181;-46
2023/08/03 10:25:35;;;;;;;13.90;9.52;;;;;;;35.20;40.80;94202.94;5089064;28;20621;-43
2023/08/03 10:28:12;;;;;;;9.40;8.48;;;;;;;35.18;40.59;94205.13;5089738;28;20272;-46
2023/08/03 10:31:10;;;;;;;10.40;9.43;;;;;;;35.09;40.79;94193.66;5089135;28;20331;-46
2023/08/03 10:34:08;;;;;;;13.80;9.25;;;;;;;35.19;40.67;94191.53;5089233;28;20215;-44
2023/08/03 10:36:46;;;;;;;10.18;9.27;;;;;;;35.28;40.45;94188.91;5089341;28;20194;-44
2023/08/03 10:39:16;;;;;;;10.20;8.98;;;;;;;35.37;40.53;94186.31;5089272;28;20195;-44
2023/08/03 10:41:44;;;;;;;10.65;9.65;;;;;;;35.41;40.22;94185.38;5089754;28;20186;-43
2023/08/03 10:44:27;;;;;;;10.48;9.50;;;;;;;35.39;40.47;94192.09;5088960;28;20647;-46
2023/08/03 10:46:56;;;;;;;9.43;8.52;;;;;;;35.35;39.67;94191.13;5088917;28;20216;-45
2023/08/03 10:49:51;;;;;;;10.30;9.32;;;;;;;35.36;39.76;94190.81;5089425;28;20272;-44
2023/08/03 10:52:21;;;;;;;10.13;9.20;;;;;;;35.36;39.76;94180.19;5084205;28;20190;-44
2023/08/03 10:54:48;;;;;;;9.77;8.93;;;;;;;35.49;39.77;94178.53;5089444;28;20182;-45
2023/08/03 10:57:18;;;;;;;9.98;8.90;;;;;;;35.57;39.71;94179.66;5089470;28;20196;-43
2023/08/03 10:59:46;;;;;;;11.10;10.00;;;;;;;35.54;40.14;94182.97;5089781;28;20274;-44
2023/08/03 11:02:15;;;;;;;9.85;8.85;;;;;;;35.46;40.27;94179.13;5088959;28;20186;-44
2023/08/03 11:04:42;;;;;;;10.80;9.70;;;;;;;35.49;40.42;94181.19;5089127;28;20189;-44
2023/08/03 11:07:10;;;;;;;11.35;9.48;;;;;;;35.55;40.22;94174.66;5090761;28;20225;-45
2023/08/03 11:09:38;;;;;;;10.50;9.43;;;;;;;35.50;40.19;94174.03;5092754;28;20649;-43
2023/08/03 11:12:07;;;;;;;13.10;10.10;;;;;;;35.41;40.20;94158.00;5092626;28;20920;-44
2023/08/03 11:14:35;;;;;;;13.73;8.68;;;;;;;35.55;39.59;94166.69;5092664;28;20194;-44
2023/08/03 11:17:02;;;;;;;10.02;9.00;;;;;;;35.52;39.38;94166.50;5092718;28;20189;-45
2023/08/03 11:19:32;;;;;;;10.75;9.63;;;;;;;35.37;39.60;94151.72;5092660;28;20194;-44
2023/08/03 11:22:00;;;;;;;9.85;9.02;;;;;;;35.25;39.38;94160.28;5092929;28;20209;-46
2023/08/03 11:24:30;;;;;;;12.05;9.00;;;;;;;35.19;39.37;94151.66;5092485;28;20194;-46
2023/08/03 11:27:00;;;;;;;9.50;8.40;;;;;;;35.15;39.19;94149.91;5093336;28;20315;-45
2023/08/03 11:29:27;;;;;;;9.30;8.48;;;;;;;35.21;38.59;94156.66;5092881;28;20197;-44
2023/08/03 11:31:54;;;;;;;9.52;8.55;;;;;;;35.31;38.64;94147.63;5092664;28;20186;-43